Salem, OR

5:08 AM PST on January 24, 2017 (GMT -0800)
Center & Cordon NE | | Change Station

Elev 210 ft 44.94 °N, 122.96 °W | Updated 6 seconds ago

Clear
Clear
25.8 °F
Feels Like 26 °F
N
0.0
Wind Variable Wind from NNE
Gusts 0.0 mph

Today
High -- | Low -- °F
--% Chance of Precip.
Yesterday
High -- | Low -- °F
Precip. -- in
Pressure 30.07 in
Visibility 10.0 miles
Clouds Clear
Windchill 26 °F
Dew Point 24 °F
Humidity 94%
Rainfall 0.00 in
Snow Depth Not available.
7:39 AM 5:09 PM
Waning Crescent, 12% visible
METAR KSLE 241256Z 00000KT 10SM CLR M02/M03 A3007 RMK AO2 SLP182 I1000 T10171028
Pressure 30.07 in
Visibility 10.0 miles
Clouds Clear
Windchill 26 °F
Dew Point 24 °F
Humidity 94%
Rainfall 0.00 in
Snow Depth Not available.
7:39 AM 5:09 PM
Waning Crescent, 12% visible
METAR KSLE 241256Z 00000KT 10SM CLR M02/M03 A3007 RMK AO2 SLP182 I1000 T10171028

Get Your Daily Forecast Email!

Thanks for signing up!

Be on the lookout for a verification email in your inbox.

You'll start receiving the daily forecast at 8 AM.

×

10-Day Weather Forecast

Almanac

Astronomy

Jan. 24, 2017 Rise Set
Actual Time
Civil Twilight
Nautical Twilight
Astronomical Twilight
Moon
Length of Visible Light
Length of Day
Tomorrow will be .
, % of the Moon is Illuminated

Today's Extremes

State Highs State Lows

Community

WunderPhotos

Upload Photos

1,962,540 photos uploaded!

WunderBlog® & News

Nearby

Air Quality

  Air Quality AQ Index Pollutant
Not available.

Snow Depth

Station Depth Elevation

Earthquake Activity

City Distance Mag. Time & Date
Minimum magnitude displayed is 2.5.

Coastal Water Temperatures

Place Temperature

Stations

Nearby Weather Stations

Station Location Temp. Windchill Dew Point Humidity Wind Precip. Elev Updated Type
                   

Watches & Warnings

Small Craft for Hazardous Seas Advisory
Issued: 1:51 AM PST Jan. 24, 2017 – National Weather Service

... Small Craft Advisory for hazardous seas now in effect until
9 am PST Tuesday...



* seas... 10 to 12 ft early this morning... falling solidly below
10 ft by mid morning.







Precautionary/preparedness actions...


A Small Craft Advisory for hazardous seas means that waves are
expected to be hazardous to small craft. Mariners should avoid
shoaling areas. Long period swell can sharpen into large breaking
waves in shoaling areas. It is not unusual for waves to break
much farther from shoaling areas than is normally experienced.
Remember... breaking waves can easily capsize even larger vessels.